createdAt,value
2023-05-13T00:00:47.740Z,20.72
2023-05-13T00:03:15.885Z,20.72
2023-05-13T00:05:43.975Z,20.71
2023-05-13T00:08:12.296Z,20.71
2023-05-13T00:10:40.262Z,20.71
2023-05-13T00:13:12.315Z,20.70
2023-05-13T00:15:40.421Z,20.71
2023-05-13T00:18:11.120Z,20.69
2023-05-13T00:20:39.077Z,20.68
2023-05-13T00:23:07.959Z,20.68
2023-05-13T00:25:35.948Z,20.68
2023-05-13T00:28:03.884Z,20.67
2023-05-13T00:30:33.154Z,20.68
2023-05-13T00:33:01.144Z,20.67
2023-05-13T00:35:32.065Z,20.68
2023-05-13T00:38:00.073Z,20.65
2023-05-13T00:40:30.768Z,20.66
2023-05-13T00:42:58.725Z,20.66
2023-05-13T00:45:26.688Z,20.66
2023-05-13T00:47:56.186Z,20.65
2023-05-13T00:50:24.533Z,20.64
2023-05-13T00:52:52.916Z,20.64
2023-05-13T00:55:20.885Z,20.64
2023-05-13T00:57:48.856Z,20.64
2023-05-13T01:00:20.516Z,20.64
2023-05-13T01:02:54.683Z,20.63
2023-05-13T01:05:37.396Z,20.63
2023-05-13T01:08:20.267Z,20.63
2023-05-13T01:10:52.423Z,20.62
2023-05-13T01:13:32.752Z,20.62
2023-05-13T01:16:05.061Z,20.62
2023-05-13T01:18:34.546Z,20.61
2023-05-13T01:21:06.318Z,20.61
2023-05-13T01:23:35.595Z,20.61
2023-05-13T01:26:03.650Z,20.61
2023-05-13T01:28:31.840Z,20.62
2023-05-13T01:31:01.545Z,20.62
2023-05-13T01:33:32.743Z,20.61
2023-05-13T01:36:00.774Z,20.61
2023-05-13T01:38:29.681Z,20.61
2023-05-13T01:41:00.238Z,20.61
2023-05-13T01:43:28.282Z,20.61
2023-05-13T01:45:56.309Z,20.60
2023-05-13T01:48:24.445Z,20.60
2023-05-13T01:50:53.786Z,20.61
2023-05-13T01:53:21.878Z,20.60
2023-05-13T01:55:49.994Z,20.60
2023-05-13T01:58:21.538Z,20.60
2023-05-13T02:00:49.590Z,20.59
2023-05-13T02:03:17.602Z,20.59
2023-05-13T02:05:47.237Z,20.60
2023-05-13T02:08:15.199Z,20.59
2023-05-13T02:10:43.148Z,20.58
2023-05-13T02:13:11.102Z,20.58
2023-05-13T02:15:41.085Z,20.58
2023-05-13T02:18:09.113Z,20.58
2023-05-13T02:20:40.074Z,20.57
2023-05-13T02:23:08.128Z,20.57
2023-05-13T02:25:36.052Z,20.57
2023-05-13T02:28:03.973Z,20.55
2023-05-13T02:30:31.888Z,20.55
2023-05-13T02:33:02.396Z,20.53
2023-05-13T02:35:30.691Z,20.54
2023-05-13T02:37:59.214Z,20.54
2023-05-13T02:40:27.135Z,20.53
2023-05-13T02:42:55.036Z,20.51
2023-05-13T02:45:22.921Z,20.53
2023-05-13T02:47:50.946Z,20.51
2023-05-13T02:50:20.758Z,20.52
2023-05-13T02:52:49.020Z,20.51
2023-05-13T02:55:16.962Z,20.51
2023-05-13T02:57:45.088Z,20.51
2023-05-13T03:00:14.338Z,20.50
2023-05-13T03:02:43.522Z,20.51
2023-05-13T03:05:11.588Z,20.49
2023-05-13T03:07:40.919Z,20.49
2023-05-13T03:10:10.020Z,20.49
2023-05-13T03:12:37.992Z,20.47
2023-05-13T03:15:06.826Z,20.48
2023-05-13T03:17:34.869Z,20.47
2023-05-13T03:20:03.151Z,20.46
2023-05-13T03:22:34.228Z,20.48
2023-05-13T03:25:04.746Z,20.47
2023-05-13T03:27:32.687Z,20.46
2023-05-13T03:30:00.627Z,20.46
2023-05-13T03:32:30.662Z,20.46
2023-05-13T03:35:00.813Z,20.45
2023-05-13T03:37:30.239Z,20.45
2023-05-13T03:40:00.815Z,20.44
2023-05-13T03:42:30.706Z,20.44
2023-05-13T03:44:58.793Z,20.44
2023-05-13T03:47:26.856Z,20.42
2023-05-13T03:49:54.828Z,20.43
2023-05-13T03:52:22.881Z,20.43
2023-05-13T03:54:50.772Z,20.42
2023-05-13T03:57:18.752Z,20.42
2023-05-13T03:59:48.070Z,20.41
2023-05-13T04:02:16.238Z,20.41
2023-05-13T04:04:44.253Z,20.40
2023-05-13T04:07:12.323Z,20.39
2023-05-13T04:09:40.272Z,20.39
2023-05-13T04:12:08.453Z,20.39
2023-05-13T04:14:36.855Z,20.40
2023-05-13T04:17:08.701Z,20.40
2023-05-13T04:19:36.644Z,20.38
2023-05-13T04:22:04.607Z,20.38
2023-05-13T04:24:32.665Z,20.38
2023-05-13T04:27:01.556Z,20.37
2023-05-13T04:29:29.634Z,20.38
2023-05-13T04:31:57.608Z,20.36
2023-05-13T04:34:34.400Z,20.36
2023-05-13T04:37:02.393Z,20.36
2023-05-13T04:39:30.300Z,20.36
2023-05-13T04:41:58.208Z,20.36
2023-05-13T04:44:26.415Z,20.35
2023-05-13T04:46:54.313Z,20.35
2023-05-13T04:49:22.249Z,20.34
2023-05-13T04:51:54.921Z,20.34
2023-05-13T04:54:23.383Z,20.34
2023-05-13T04:56:51.314Z,20.34
2023-05-13T04:59:19.248Z,20.34
2023-05-13T05:01:47.366Z,20.34
2023-05-13T05:04:15.502Z,20.33
2023-05-13T05:06:43.526Z,20.32
2023-05-13T05:09:12.928Z,20.33
2023-05-13T05:11:40.887Z,20.34
2023-05-13T05:14:08.854Z,20.33
2023-05-13T05:16:37.008Z,20.34
2023-05-13T05:19:05.535Z,20.33
2023-05-13T05:21:33.521Z,20.33
2023-05-13T05:24:01.929Z,20.33
2023-05-13T05:26:32.717Z,20.34
2023-05-13T05:29:00.732Z,20.33
2023-05-13T05:31:31.579Z,20.33
2023-05-13T05:34:01.020Z,20.33
2023-05-13T05:36:30.023Z,20.35
2023-05-13T05:38:58.093Z,20.34
2023-05-13T05:41:26.146Z,20.36
2023-05-13T05:43:55.528Z,20.35
2023-05-13T05:46:23.936Z,20.37
2023-05-13T05:48:51.957Z,20.37
2023-05-13T05:51:19.993Z,20.39
2023-05-13T05:53:50.941Z,20.39
2023-05-13T05:56:18.854Z,20.39
2023-05-13T05:58:47.012Z,20.40
2023-05-13T06:01:16.513Z,20.41
2023-05-13T06:03:45.863Z,20.41
2023-05-13T06:06:13.945Z,20.42
2023-05-13T06:08:44.668Z,20.43
2023-05-13T06:11:12.595Z,20.42
2023-05-13T06:13:40.539Z,20.42
2023-05-13T06:16:08.614Z,20.43
2023-05-13T06:18:38.109Z,20.45
2023-05-13T06:21:06.114Z,20.45
2023-05-13T06:23:34.049Z,20.46
2023-05-13T06:26:02.026Z,20.45
2023-05-13T06:28:32.520Z,20.47
2023-05-13T06:31:00.520Z,20.48
2023-05-13T06:33:28.456Z,20.51
2023-05-13T06:35:57.777Z,20.49
2023-05-13T06:38:28.612Z,20.48
2023-05-13T06:40:56.533Z,20.46
2023-05-13T06:43:24.556Z,20.43
2023-05-13T06:45:52.442Z,20.25
2023-05-13T06:48:20.409Z,19.99
2023-05-13T06:50:49.798Z,19.76
2023-05-13T06:53:19.087Z,19.65
2023-05-13T06:55:47.064Z,19.64
2023-05-13T06:58:17.829Z,19.67
2023-05-13T07:00:46.746Z,19.70
2023-05-13T07:03:17.740Z,19.69
2023-05-13T07:05:45.755Z,19.71
2023-05-13T07:08:18.136Z,19.69
2023-05-13T07:10:47.625Z,19.70
2023-05-13T07:13:15.853Z,19.64
2023-05-13T07:15:43.830Z,19.60
2023-05-13T07:18:11.761Z,19.66
2023-05-13T07:20:39.831Z,19.69
2023-05-13T07:23:07.803Z,19.73
2023-05-13T07:25:35.733Z,19.75
2023-05-13T07:28:05.367Z,19.67
2023-05-13T07:30:33.379Z,19.65
2023-05-13T07:33:05.938Z,19.62
2023-05-13T07:35:37.610Z,19.63
2023-05-13T07:38:05.784Z,19.57
2023-05-13T07:40:33.742Z,19.62
2023-05-13T07:43:02.093Z,19.63
2023-05-13T07:45:31.481Z,19.61
2023-05-13T07:47:59.451Z,19.64
2023-05-13T07:50:27.537Z,19.65
2023-05-13T07:52:55.466Z,19.70
2023-05-13T07:55:23.669Z,19.76
2023-05-13T07:57:51.776Z,19.81
2023-05-13T08:00:20.098Z,19.86
2023-05-13T08:02:49.538Z,19.89
2023-05-13T08:05:17.487Z,19.95
2023-05-13T08:07:59.381Z,19.98
2023-05-13T08:10:27.367Z,20.00
2023-05-13T08:12:57.752Z,20.03
2023-05-13T08:15:25.878Z,20.05
2023-05-13T08:17:54.608Z,20.07
2023-05-13T08:20:29.534Z,20.11
2023-05-13T08:23:01.057Z,20.13
2023-05-13T08:25:29.045Z,20.14
2023-05-13T08:27:58.315Z,20.16
2023-05-13T08:30:26.328Z,20.17
2023-05-13T08:32:54.397Z,20.17
2023-05-13T08:35:22.860Z,20.18
2023-05-13T08:37:50.954Z,20.19
2023-05-13T08:40:21.222Z,20.21
2023-05-13T08:42:51.868Z,20.23
2023-05-13T08:45:23.410Z,20.26
2023-05-13T08:47:53.556Z,20.28
2023-05-13T08:50:22.601Z,20.28
2023-05-13T08:52:52.789Z,20.30
2023-05-13T08:55:24.188Z,20.31
2023-05-13T08:57:53.028Z,20.31
2023-05-13T09:00:21.833Z,20.33
2023-05-13T09:02:51.026Z,20.35
2023-05-13T09:05:20.338Z,20.35
2023-05-13T09:07:48.478Z,20.37
2023-05-13T09:10:18.649Z,20.39
2023-05-13T09:12:49.859Z,20.41
2023-05-13T09:15:19.454Z,20.41
2023-05-13T09:17:50.706Z,20.44
2023-05-13T09:20:20.128Z,20.40
2023-05-13T09:22:49.324Z,20.40
2023-05-13T09:25:24.145Z,20.39
2023-05-13T09:27:58.825Z,20.39
2023-05-13T09:30:28.055Z,20.38
2023-05-13T09:33:07.700Z,20.39
2023-05-13T09:35:36.940Z,20.36
2023-05-13T09:38:14.509Z,20.35
2023-05-13T09:40:42.746Z,20.35
2023-05-13T09:43:12.235Z,20.36
2023-05-13T09:45:40.206Z,20.38
2023-05-13T09:48:09.541Z,20.39
2023-05-13T09:50:49.054Z,20.41
2023-05-13T09:53:17.625Z,20.43
2023-05-13T09:55:47.373Z,20.48
2023-05-13T09:58:16.841Z,20.51
2023-05-13T10:00:45.474Z,20.56
2023-05-13T10:03:17.083Z,20.56
2023-05-13T10:05:45.082Z,20.57
2023-05-13T10:08:14.916Z,20.58
2023-05-13T10:10:45.739Z,20.56
2023-05-13T10:13:18.000Z,20.56
2023-05-13T10:15:51.130Z,20.57
2023-05-13T10:18:20.267Z,20.57
2023-05-13T10:20:53.094Z,20.57
2023-05-13T10:23:22.496Z,20.57
2023-05-13T10:25:51.995Z,20.57
2023-05-13T10:28:21.485Z,20.58
2023-05-13T10:30:51.116Z,20.58
2023-05-13T10:33:20.008Z,20.59
2023-05-13T10:36:01.709Z,20.58
2023-05-13T10:38:45.661Z,20.59
2023-05-13T10:41:35.382Z,20.59
2023-05-13T10:44:05.067Z,20.60
2023-05-13T10:46:39.293Z,20.60
2023-05-13T10:49:07.280Z,20.60
2023-05-13T10:51:35.285Z,20.60
2023-05-13T10:54:03.735Z,20.60
2023-05-13T10:56:31.682Z,20.60
2023-05-13T10:59:01.382Z,20.60
2023-05-13T11:01:34.686Z,20.59
2023-05-13T11:04:04.818Z,20.61
2023-05-13T11:06:36.766Z,20.61
2023-05-13T11:09:07.321Z,20.62
2023-05-13T11:11:37.007Z,20.61
2023-05-13T11:14:18.638Z,20.62
2023-05-13T11:16:55.020Z,20.63
2023-05-13T11:19:27.176Z,20.63
2023-05-13T11:21:56.264Z,20.64
2023-05-13T11:24:25.466Z,20.64
2023-05-13T11:26:56.337Z,20.64
2023-05-13T11:29:32.142Z,20.65
2023-05-13T11:32:03.291Z,20.64
2023-05-13T11:34:32.524Z,20.64
2023-05-13T11:37:09.496Z,20.65
2023-05-13T11:39:39.962Z,20.64
2023-05-13T11:42:09.554Z,20.65
2023-05-13T11:44:39.104Z,20.64
2023-05-13T11:47:08.563Z,20.65
2023-05-13T11:49:39.777Z,20.66
2023-05-13T11:52:11.460Z,20.67
2023-05-13T11:54:48.316Z,20.66
2023-05-13T11:57:23.632Z,20.65
2023-05-13T11:59:56.949Z,20.68
2023-05-13T12:02:28.127Z,20.69
2023-05-13T12:04:56.773Z,20.72
2023-05-13T12:07:25.875Z,20.75
2023-05-13T12:09:56.934Z,20.78
2023-05-13T12:12:25.677Z,20.80
2023-05-13T12:14:57.508Z,20.80
2023-05-13T12:17:27.113Z,20.82
2023-05-13T12:20:17.145Z,20.80
2023-05-13T12:22:53.434Z,20.81
2023-05-13T12:25:51.156Z,20.80
2023-05-13T12:28:20.948Z,20.80
2023-05-13T12:30:53.776Z,20.81
2023-05-13T12:33:27.313Z,20.81
2023-05-13T12:36:15.623Z,20.82
2023-05-13T12:38:58.176Z,20.82
2023-05-13T12:41:29.796Z,20.81
2023-05-13T12:43:59.559Z,20.82
2023-05-13T12:46:30.089Z,20.82
2023-05-13T12:49:01.545Z,20.82
2023-05-13T12:51:30.711Z,20.83
2023-05-13T12:53:58.670Z,20.83
2023-05-13T12:56:28.960Z,20.82
2023-05-13T12:58:57.240Z,20.84
2023-05-13T13:01:27.565Z,20.85
2023-05-13T13:03:55.831Z,20.86
2023-05-13T13:06:25.559Z,20.89
2023-05-13T13:08:53.609Z,20.90
2023-05-13T13:11:21.689Z,20.90
2023-05-13T13:13:51.212Z,20.91
2023-05-13T13:16:19.402Z,20.91
2023-05-13T13:18:47.671Z,20.93
2023-05-13T13:21:15.730Z,20.93
2023-05-13T13:23:45.035Z,20.93
2023-05-13T13:26:13.015Z,20.94
2023-05-13T13:28:43.817Z,20.93
2023-05-13T13:31:12.174Z,20.93
2023-05-13T13:33:40.133Z,20.94
2023-05-13T13:36:08.666Z,20.94
2023-05-13T13:38:36.653Z,20.96
2023-05-13T13:41:06.257Z,20.95
2023-05-13T13:43:37.232Z,20.95
2023-05-13T13:46:05.225Z,20.96
2023-05-13T13:48:33.238Z,20.96
2023-05-13T13:51:01.207Z,20.97
2023-05-13T13:53:29.175Z,20.94
2023-05-13T13:55:59.826Z,20.94
2023-05-13T13:58:29.177Z,20.94
2023-05-13T14:00:57.325Z,20.95
2023-05-13T14:03:26.983Z,20.97
2023-05-13T14:05:55.349Z,20.98
2023-05-13T14:08:26.288Z,20.99
2023-05-13T14:10:54.385Z,20.99
2023-05-13T14:13:22.357Z,20.98
2023-05-13T14:15:54.078Z,20.98
2023-05-13T14:18:22.097Z,21.00
2023-05-13T14:20:50.392Z,21.01
2023-05-13T14:23:22.626Z,21.00
2023-05-13T14:25:50.606Z,21.00
2023-05-13T14:28:18.577Z,21.00
2023-05-13T14:30:46.572Z,21.00
2023-05-13T14:33:18.201Z,20.99
2023-05-13T14:35:46.203Z,20.99
2023-05-13T14:38:14.101Z,20.99
2023-05-13T14:40:43.254Z,21.00
2023-05-13T14:43:11.316Z,20.99
2023-05-13T14:45:39.294Z,20.99
2023-05-13T14:48:07.422Z,20.99
2023-05-13T14:50:36.824Z,20.99
2023-05-13T14:53:04.866Z,20.97
2023-05-13T14:55:33.053Z,20.98
2023-05-13T14:58:01.255Z,20.98
2023-05-13T15:00:29.249Z,20.96
2023-05-13T15:02:57.265Z,20.97
2023-05-13T15:05:26.442Z,20.98
2023-05-13T15:07:56.082Z,20.97
2023-05-13T15:10:24.222Z,20.99
2023-05-13T15:12:52.310Z,20.99
2023-05-13T15:15:20.384Z,21.02
2023-05-13T15:17:50.336Z,21.02
2023-05-13T15:20:24.611Z,21.03
2023-05-13T15:22:52.690Z,21.02
2023-05-13T15:25:22.005Z,21.02
2023-05-13T15:27:50.604Z,21.04
2023-05-13T15:30:18.609Z,21.04
2023-05-13T15:32:46.582Z,21.04
2023-05-13T15:35:17.352Z,21.04
2023-05-13T15:37:48.332Z,21.03
2023-05-13T15:40:16.413Z,21.02
2023-05-13T15:42:45.959Z,21.02
2023-05-13T15:45:13.964Z,21.01
2023-05-13T15:47:42.301Z,21.02
2023-05-13T15:50:11.331Z,21.01
2023-05-13T15:52:39.518Z,20.99
2023-05-13T15:55:08.382Z,20.99
2023-05-13T15:57:36.346Z,20.99
2023-05-13T16:00:06.801Z,20.98
2023-05-13T16:02:39.166Z,20.98
2023-05-13T16:05:08.433Z,20.97
2023-05-13T16:07:36.348Z,20.97
2023-05-13T16:10:04.462Z,20.98
2023-05-13T16:12:32.500Z,20.98
2023-05-13T16:15:00.650Z,20.95
2023-05-13T16:17:29.996Z,20.94
2023-05-13T16:19:57.957Z,20.95
2023-05-13T16:22:27.138Z,20.95
2023-05-13T16:24:55.766Z,20.98
2023-05-13T16:27:23.806Z,21.01
2023-05-13T16:29:54.912Z,21.07
2023-05-13T16:32:23.042Z,21.10
2023-05-13T16:34:52.993Z,21.11
2023-05-13T16:37:20.989Z,21.11
2023-05-13T16:39:48.937Z,21.11
2023-05-13T16:42:22.285Z,21.12
2023-05-13T16:44:50.530Z,21.14
2023-05-13T16:47:18.560Z,21.14
2023-05-13T16:49:48.473Z,21.15
2023-05-13T16:52:18.058Z,21.14
2023-05-13T16:54:46.154Z,21.15
2023-05-13T16:57:17.409Z,21.16
2023-05-13T16:59:48.140Z,21.16
2023-05-13T17:02:16.172Z,21.17
2023-05-13T17:04:47.293Z,21.18
2023-05-13T17:07:15.287Z,21.17
2023-05-13T17:09:44.700Z,21.19
2023-05-13T17:12:12.704Z,21.20
2023-05-13T17:14:40.969Z,21.22
2023-05-13T17:17:09.026Z,21.24
2023-05-13T17:19:40.031Z,21.24
2023-05-13T17:22:08.091Z,21.22
2023-05-13T17:24:36.100Z,21.21
2023-05-13T17:27:05.480Z,21.20
2023-05-13T17:29:36.469Z,21.20
2023-05-13T17:32:04.576Z,21.20
2023-05-13T17:34:32.522Z,21.21
2023-05-13T17:37:00.556Z,21.20
2023-05-13T17:39:28.484Z,21.19
2023-05-13T17:41:58.928Z,21.17
2023-05-13T17:44:28.280Z,21.17
2023-05-13T17:46:56.286Z,21.17
2023-05-13T17:49:24.235Z,21.16
2023-05-13T17:51:52.217Z,21.18
2023-05-13T17:54:20.148Z,21.18
2023-05-13T17:56:48.216Z,21.18
2023-05-13T17:59:16.136Z,21.18
2023-05-13T18:01:45.517Z,21.18
2023-05-13T18:04:13.539Z,21.17
2023-05-13T18:06:41.489Z,21.17
2023-05-13T18:09:09.615Z,21.16
2023-05-13T18:11:37.580Z,21.16
2023-05-13T18:14:06.872Z,21.15
2023-05-13T18:16:34.884Z,21.15
2023-05-13T18:19:06.876Z,21.14
2023-05-13T18:21:34.951Z,21.15
2023-05-13T18:24:02.885Z,21.15
2023-05-13T18:26:30.802Z,21.13
2023-05-13T18:29:01.065Z,21.13
2023-05-13T18:31:29.082Z,21.13
2023-05-13T18:33:57.045Z,21.11
2023-05-13T18:36:29.455Z,21.12
2023-05-13T18:38:57.517Z,21.12
2023-05-13T18:41:25.843Z,21.12
2023-05-13T18:43:53.875Z,21.11
2023-05-13T18:46:22.580Z,21.11
2023-05-13T18:48:51.055Z,21.10
2023-05-13T18:51:19.013Z,21.10
2023-05-13T18:53:51.152Z,21.09
2023-05-13T18:56:19.443Z,21.10
2023-05-13T18:58:47.570Z,21.09
2023-05-13T19:01:16.448Z,21.08
2023-05-13T19:03:47.793Z,21.08
2023-05-13T19:06:16.350Z,21.07
2023-05-13T19:08:44.317Z,21.08
2023-05-13T19:11:13.905Z,21.05
2023-05-13T19:13:47.292Z,21.05
2023-05-13T19:16:16.013Z,21.06
2023-05-13T19:18:44.016Z,21.04
2023-05-13T19:21:12.031Z,21.05
2023-05-13T19:23:40.001Z,21.05
2023-05-13T19:26:08.157Z,21.05
2023-05-13T19:28:40.410Z,21.05
2023-05-13T19:31:08.436Z,21.04
2023-05-13T19:33:37.272Z,21.04
2023-05-13T19:36:08.685Z,21.04
2023-05-13T19:38:36.974Z,21.04
2023-05-13T19:41:04.895Z,21.04
2023-05-13T19:43:32.958Z,21.04
2023-05-13T19:46:02.433Z,21.02
2023-05-13T19:48:30.772Z,21.02
2023-05-13T19:50:58.731Z,21.01
2023-05-13T19:53:26.722Z,21.01
2023-05-13T19:55:56.675Z,21.02
2023-05-13T19:58:24.663Z,21.02
2023-05-13T20:00:52.569Z,21.02
2023-05-13T20:03:22.033Z,20.99
2023-05-13T20:05:49.999Z,21.04
2023-05-13T20:08:18.014Z,21.03
2023-05-13T20:10:46.367Z,21.02
2023-05-13T20:13:14.374Z,21.01
2023-05-13T20:15:43.374Z,21.00
2023-05-13T20:18:11.306Z,21.01
2023-05-13T20:20:41.697Z,21.00
2023-05-13T20:23:09.737Z,21.00
2023-05-13T20:25:37.704Z,20.99
2023-05-13T20:28:05.952Z,20.98
2023-05-13T20:30:33.996Z,20.97
2023-05-13T20:33:02.002Z,20.98
2023-05-13T20:35:30.319Z,20.98
2023-05-13T20:38:00.752Z,20.97
2023-05-13T20:40:28.704Z,20.97
2023-05-13T20:42:56.891Z,20.97
2023-05-13T20:45:24.793Z,20.97
2023-05-13T20:47:52.679Z,20.97
2023-05-13T20:50:21.000Z,20.97
2023-05-13T20:52:49.124Z,20.96
2023-05-13T20:55:20.443Z,20.95
2023-05-13T20:57:48.804Z,20.96
2023-05-13T21:00:17.322Z,20.96
2023-05-13T21:02:45.912Z,20.95
2023-05-13T21:05:13.878Z,20.95
2023-05-13T21:07:41.942Z,20.95
2023-05-13T21:10:10.484Z,20.94
2023-05-13T21:12:39.819Z,20.94
2023-05-13T21:15:09.253Z,20.95
2023-05-13T21:17:37.310Z,20.94
2023-05-13T21:20:06.072Z,20.93
2023-05-13T21:22:33.990Z,20.92
2023-05-13T21:25:01.948Z,20.93
2023-05-13T21:27:29.960Z,20.93
2023-05-13T21:29:59.278Z,20.92
2023-05-13T21:32:27.428Z,20.92
2023-05-13T21:34:56.174Z,20.91
2023-05-13T21:37:24.268Z,20.92
2023-05-13T21:39:52.336Z,20.92
2023-05-13T21:42:20.658Z,20.91
2023-05-13T21:44:48.757Z,20.93
2023-05-13T21:47:18.466Z,20.93
2023-05-13T21:49:46.475Z,20.92
2023-05-13T21:52:14.428Z,20.93
2023-05-13T21:54:42.359Z,20.93
2023-05-13T21:57:10.491Z,20.94
2023-05-13T21:59:38.440Z,20.93
2023-05-13T22:02:07.055Z,20.94
2023-05-13T22:04:36.788Z,20.93
2023-05-13T22:07:07.633Z,20.93
2023-05-13T22:09:35.727Z,20.93
2023-05-13T22:12:03.725Z,20.92
2023-05-13T22:14:31.715Z,20.93
2023-05-13T22:17:09.198Z,20.92
2023-05-13T22:19:39.550Z,20.92
2023-05-13T22:22:07.571Z,20.91
2023-05-13T22:24:35.793Z,20.91
2023-05-13T22:27:07.137Z,20.92
2023-05-13T22:29:35.036Z,20.90
2023-05-13T22:32:03.429Z,20.91
2023-05-13T22:34:31.478Z,20.90
2023-05-13T22:37:02.241Z,20.89
2023-05-13T22:39:30.204Z,20.89
2023-05-13T22:41:58.194Z,20.89
2023-05-13T22:44:26.475Z,20.88
2023-05-13T22:46:54.652Z,20.89
2023-05-13T22:49:22.800Z,20.89
2023-05-13T22:51:50.843Z,20.89
2023-05-13T22:54:20.110Z,20.89
2023-05-13T22:56:48.087Z,20.89
2023-05-13T22:59:16.097Z,20.88
2023-05-13T23:01:44.247Z,20.88
2023-05-13T23:04:12.195Z,20.87
2023-05-13T23:06:40.209Z,20.87
2023-05-13T23:09:08.631Z,20.88
2023-05-13T23:11:40.228Z,20.87
2023-05-13T23:14:09.213Z,20.86
2023-05-13T23:16:37.474Z,20.86
2023-05-13T23:19:05.570Z,20.86
2023-05-13T23:21:33.652Z,20.85
2023-05-13T23:24:01.548Z,20.85
2023-05-13T23:26:29.558Z,20.85
2023-05-13T23:28:58.907Z,20.84
2023-05-13T23:31:27.040Z,20.84
2023-05-13T23:33:55.016Z,20.84
2023-05-13T23:36:23.057Z,20.83
2023-05-13T23:38:51.149Z,20.82
2023-05-13T23:41:19.112Z,20.82
2023-05-13T23:43:47.049Z,20.83
2023-05-13T23:46:16.427Z,20.81
2023-05-13T23:48:44.463Z,20.82
2023-05-13T23:51:12.439Z,20.82
2023-05-13T23:53:40.384Z,20.82
2023-05-13T23:56:08.628Z,20.80
2023-05-13T23:58:36.588Z,20.79
